createdAt,value
2018-11-06T00:00:17.021Z,5.79
2018-11-06T00:02:47.409Z,5.86
2018-11-06T00:05:17.919Z,5.91
2018-11-06T00:07:47.045Z,5.90
2018-11-06T00:10:16.881Z,5.89
2018-11-06T00:12:46.032Z,5.89
2018-11-06T00:15:15.597Z,5.84
2018-11-06T00:17:44.737Z,5.79
2018-11-06T00:20:15.361Z,5.82
2018-11-06T00:22:44.396Z,5.81
2018-11-06T00:25:14.196Z,5.80
2018-11-06T00:27:44.328Z,5.87
2018-11-06T00:30:14.688Z,5.84
2018-11-06T00:32:44.212Z,5.82
2018-11-06T00:35:14.624Z,5.82
2018-11-06T00:37:44.944Z,5.78
2018-11-06T00:40:14.396Z,5.72
2018-11-06T00:42:43.492Z,5.71
2018-11-06T00:45:14.961Z,5.74
2018-11-06T00:47:44.201Z,5.61
2018-11-06T00:50:14.380Z,5.52
2018-11-06T00:52:44.456Z,5.47
2018-11-06T00:55:14.012Z,5.41
2018-11-06T00:57:44.479Z,5.37
2018-11-06T01:00:16.749Z,5.24
2018-11-06T01:02:46.340Z,5.26
2018-11-06T01:05:16.392Z,5.21
2018-11-06T01:07:47.940Z,5.26
2018-11-06T01:10:17.452Z,5.39
2018-11-06T01:12:47.568Z,5.49
2018-11-06T01:15:17.453Z,5.51
2018-11-06T01:17:47.692Z,5.60
2018-11-06T01:20:18.130Z,5.61
2018-11-06T01:22:47.406Z,5.63
2018-11-06T01:25:16.805Z,5.67
2018-11-06T01:27:46.033Z,5.72
2018-11-06T01:30:18.904Z,5.71
2018-11-06T01:32:48.468Z,5.64
2018-11-06T01:35:17.964Z,5.57
2018-11-06T01:37:47.508Z,5.53
2018-11-06T01:40:18.006Z,5.51
2018-11-06T01:42:47.669Z,5.46
2018-11-06T01:45:17.630Z,5.45
2018-11-06T01:47:47.012Z,5.42
2018-11-06T01:50:17.184Z,5.42
2018-11-06T01:52:47.233Z,5.41
2018-11-06T01:55:16.424Z,5.35
2018-11-06T01:57:46.740Z,5.31
2018-11-06T02:00:19.225Z,5.28
2018-11-06T02:02:48.652Z,5.26
2018-11-06T02:05:18.860Z,5.26
2018-11-06T02:07:49.165Z,5.11
2018-11-06T02:10:18.825Z,5.12
2018-11-06T02:12:48.374Z,4.97
2018-11-06T02:15:17.549Z,4.99
2018-11-06T02:17:46.989Z,5.15
2018-11-06T02:20:17.281Z,5.21
2018-11-06T02:22:46.979Z,5.18
2018-11-06T02:25:16.460Z,5.23
2018-11-06T02:27:46.076Z,5.26
2018-11-06T02:30:16.574Z,5.29
2018-11-06T02:32:47.089Z,5.31
2018-11-06T02:35:16.389Z,5.39
2018-11-06T02:37:45.508Z,5.38
2018-11-06T02:40:15.756Z,5.33
2018-11-06T02:42:45.003Z,5.24
2018-11-06T02:45:14.717Z,5.34
2018-11-06T02:47:44.369Z,5.29
2018-11-06T02:50:14.289Z,5.33
2018-11-06T02:52:43.951Z,5.24
2018-11-06T02:55:13.433Z,5.20
2018-11-06T02:57:43.094Z,5.13
2018-11-06T03:00:15.285Z,5.08
2018-11-06T03:02:45.500Z,5.03
2018-11-06T03:05:14.640Z,5.10
2018-11-06T03:07:43.784Z,5.13
2018-11-06T03:10:13.877Z,5.20
2018-11-06T03:12:44.827Z,5.18
2018-11-06T03:15:15.397Z,5.13
2018-11-06T03:17:44.733Z,5.04
2018-11-06T03:20:14.445Z,4.90
2018-11-06T03:22:44.144Z,4.95
2018-11-06T03:25:13.743Z,4.96
2018-11-06T03:27:43.216Z,4.95
2018-11-06T03:30:15.268Z,4.95
2018-11-06T03:32:44.736Z,4.78
2018-11-06T03:35:14.793Z,4.79
2018-11-06T03:37:43.942Z,4.88
2018-11-06T03:40:13.583Z,5.02
2018-11-06T03:42:43.412Z,5.14
2018-11-06T03:45:13.485Z,5.10
2018-11-06T03:47:42.593Z,5.23
2018-11-06T03:50:12.953Z,5.16
2018-11-06T03:52:42.309Z,5.27
2018-11-06T03:55:11.558Z,5.27
2018-11-06T03:57:40.669Z,5.26
2018-11-06T04:00:13.201Z,5.25
2018-11-06T04:02:42.860Z,5.28
2018-11-06T04:05:13.057Z,5.24
2018-11-06T04:07:42.456Z,5.17
2018-11-06T04:10:12.403Z,5.18
2018-11-06T04:12:42.093Z,5.22
2018-11-06T04:15:12.581Z,5.22
2018-11-06T04:17:42.552Z,5.19
2018-11-06T04:20:11.616Z,5.15
2018-11-06T04:22:41.609Z,5.21
2018-11-06T04:25:11.518Z,5.23
2018-11-06T04:27:40.668Z,5.29
2018-11-06T04:30:12.406Z,5.40
2018-11-06T04:32:42.565Z,5.51
2018-11-06T04:35:12.062Z,5.60
2018-11-06T04:37:42.253Z,5.63
2018-11-06T04:40:13.116Z,5.66
2018-11-06T04:42:42.289Z,5.78
2018-11-06T04:45:12.361Z,5.84
2018-11-06T04:47:41.465Z,5.83
2018-11-06T04:50:11.370Z,5.81
2018-11-06T04:52:41.588Z,5.79
2018-11-06T04:55:11.812Z,5.70
2018-11-06T04:57:41.716Z,5.66
2018-11-06T05:00:13.784Z,5.63
2018-11-06T05:02:43.537Z,5.73
2018-11-06T05:05:13.188Z,5.72
2018-11-06T05:07:42.353Z,5.57
2018-11-06T05:10:12.953Z,5.21
2018-11-06T05:12:42.089Z,5.28
2018-11-06T05:15:13.481Z,5.38
2018-11-06T05:17:42.757Z,5.46
2018-11-06T05:20:17.332Z,5.31
2018-11-06T05:22:48.045Z,5.32
2018-11-06T05:25:17.564Z,5.38
2018-11-06T05:27:47.329Z,5.50
2018-11-06T05:30:16.523Z,5.62
2018-11-06T05:32:45.753Z,5.76
2018-11-06T05:35:14.821Z,5.84
2018-11-06T05:37:43.977Z,5.91
2018-11-06T05:41:23.389Z,6.01
2018-11-06T05:43:52.718Z,5.98
2018-11-06T05:46:21.845Z,5.93
2018-11-06T05:48:51.441Z,5.89
2018-11-06T05:51:20.658Z,5.95
2018-11-06T05:53:49.837Z,6.02
2018-11-06T05:56:19.137Z,6.09
2018-11-06T05:58:48.428Z,6.11
2018-11-06T06:01:17.589Z,6.12
2018-11-06T06:03:46.708Z,6.07
2018-11-06T06:06:15.905Z,6.07
2018-11-06T06:08:45.041Z,6.14
2018-11-06T06:11:14.454Z,6.29
2018-11-06T06:13:43.512Z,6.31
2018-11-06T06:16:12.698Z,6.34
2018-11-06T06:18:41.827Z,6.37
2018-11-06T06:21:10.973Z,6.44
2018-11-06T06:23:40.148Z,6.51
2018-11-06T06:26:09.311Z,6.59
2018-11-06T06:28:38.546Z,6.62
2018-11-06T06:31:07.733Z,6.65
2018-11-06T06:33:37.513Z,6.63
2018-11-06T06:36:06.714Z,6.68
2018-11-06T06:38:35.906Z,6.71
2018-11-06T06:41:05.270Z,6.81
2018-11-06T06:43:34.353Z,6.90
2018-11-06T06:46:04.116Z,6.92
2018-11-06T06:48:33.325Z,7.00
2018-11-06T06:51:02.573Z,7.04
2018-11-06T06:53:31.756Z,7.08
2018-11-06T06:56:01.589Z,7.05
2018-11-06T06:58:30.724Z,7.15
2018-11-06T07:00:59.896Z,7.23
2018-11-06T07:03:29.173Z,7.28
2018-11-06T07:05:58.472Z,7.42
2018-11-06T07:08:27.612Z,7.62
2018-11-06T07:10:56.863Z,7.71
2018-11-06T07:13:25.967Z,7.87
2018-11-06T07:15:55.351Z,7.91
2018-11-06T07:18:24.502Z,8.01
2018-11-06T07:20:53.928Z,7.99
2018-11-06T07:23:23.189Z,8.17
2018-11-06T07:25:52.333Z,8.20
2018-11-06T07:28:21.505Z,8.32
2018-11-06T07:30:50.709Z,8.49
2018-11-06T07:33:19.797Z,8.43
2018-11-06T07:35:49.100Z,8.67
2018-11-06T07:38:17.997Z,8.91
2018-11-06T07:40:47.224Z,9.07
2018-11-06T07:43:16.377Z,9.11
2018-11-06T07:45:45.596Z,9.07
2018-11-06T07:48:14.785Z,9.04
2018-11-06T07:50:44.025Z,9.02
2018-11-06T07:53:13.324Z,8.67
2018-11-06T07:55:43.435Z,8.53
2018-11-06T07:58:12.598Z,8.85
2018-11-06T08:00:41.749Z,8.98
2018-11-06T08:03:11.144Z,8.71
2018-11-06T08:05:40.259Z,8.69
2018-11-06T08:08:09.539Z,8.32
2018-11-06T08:10:38.839Z,8.39
2018-11-06T08:13:08.538Z,8.71
2018-11-06T08:15:37.705Z,8.96
2018-11-06T08:18:07.333Z,8.79
2018-11-06T08:20:36.472Z,8.51
2018-11-06T08:23:05.564Z,8.68
2018-11-06T08:25:34.793Z,8.83
2018-11-06T08:28:04.211Z,8.43
2018-11-06T08:30:33.815Z,8.31
2018-11-06T08:33:03.356Z,8.71
2018-11-06T08:35:32.473Z,8.64
2018-11-06T08:38:01.752Z,8.44
2018-11-06T08:40:31.175Z,8.26
2018-11-06T08:43:00.284Z,8.25
2018-11-06T08:45:29.405Z,8.58
2018-11-06T08:47:58.638Z,8.97
2018-11-06T08:50:27.761Z,8.83
2018-11-06T08:52:56.885Z,9.03
2018-11-06T08:55:25.964Z,9.14
2018-11-06T08:57:55.128Z,9.23
2018-11-06T09:00:24.402Z,9.57
2018-11-06T09:02:53.556Z,9.91
2018-11-06T09:05:22.697Z,9.40
2018-11-06T09:07:51.829Z,9.73
2018-11-06T09:10:21.657Z,9.84
2018-11-06T09:12:50.828Z,9.90
2018-11-06T09:15:20.253Z,10.22
2018-11-06T09:17:49.841Z,10.44
2018-11-06T09:20:19.051Z,10.63
2018-11-06T09:22:48.689Z,10.61
2018-11-06T09:25:18.883Z,9.98
2018-11-06T09:27:48.021Z,10.27
2018-11-06T09:30:18.415Z,10.58
2018-11-06T09:32:48.061Z,10.18
2018-11-06T09:35:17.250Z,9.99
2018-11-06T09:37:46.529Z,9.65
2018-11-06T09:40:17.235Z,9.70
2018-11-06T09:42:47.380Z,9.62
2018-11-06T09:45:16.906Z,9.91
2018-11-06T09:47:47.026Z,9.78
2018-11-06T09:50:17.558Z,9.98
2018-11-06T09:52:47.378Z,10.02
2018-11-06T09:55:17.485Z,10.28
2018-11-06T09:57:47.517Z,10.58
2018-11-06T10:00:18.787Z,10.72
2018-11-06T10:02:47.961Z,10.53
2018-11-06T10:05:18.050Z,10.44
2018-11-06T10:07:47.275Z,10.35
2018-11-06T10:10:17.528Z,10.36
2018-11-06T10:12:47.313Z,10.47
2018-11-06T10:15:18.095Z,10.81
2018-11-06T10:17:48.313Z,10.79
2018-11-06T10:20:18.944Z,11.25
2018-11-06T10:22:48.592Z,11.20
2018-11-06T10:25:17.848Z,11.34
2018-11-06T10:27:47.057Z,11.69
2018-11-06T10:30:18.815Z,12.34
2018-11-06T10:32:48.789Z,12.54
2018-11-06T10:35:17.913Z,12.82
2018-11-06T10:37:47.053Z,12.28
2018-11-06T10:40:19.792Z,12.95
2018-11-06T10:42:48.928Z,13.13
2018-11-06T10:45:18.817Z,14.14
2018-11-06T10:47:49.453Z,14.89
2018-11-06T10:50:19.061Z,15.67
2018-11-06T10:52:49.061Z,16.63
2018-11-06T10:55:18.254Z,17.00
2018-11-06T10:57:47.371Z,17.56
2018-11-06T11:00:21.850Z,17.86
2018-11-06T11:02:56.396Z,17.40
2018-11-06T11:05:27.460Z,17.72
2018-11-06T11:07:57.529Z,17.74
2018-11-06T11:10:26.672Z,17.82
2018-11-06T11:12:55.876Z,18.08
2018-11-06T11:15:25.002Z,18.13
2018-11-06T11:17:54.138Z,18.41
2018-11-06T11:20:23.420Z,18.80
2018-11-06T11:22:52.589Z,19.03
2018-11-06T11:25:21.862Z,19.29
2018-11-06T11:27:51.056Z,19.78
2018-11-06T11:30:20.289Z,18.50
2018-11-06T11:32:50.003Z,19.73
2018-11-06T11:35:19.142Z,20.53
2018-11-06T11:37:49.387Z,21.01
2018-11-06T11:40:18.500Z,20.77
2018-11-06T11:42:47.625Z,20.21
2018-11-06T11:45:17.197Z,20.95
2018-11-06T11:47:46.357Z,21.36
2018-11-06T11:50:16.557Z,21.66
2018-11-06T11:52:46.429Z,21.31
2018-11-06T11:55:15.508Z,21.19
2018-11-06T11:57:44.717Z,22.37
2018-11-06T12:00:15.443Z,22.26
2018-11-06T12:02:44.499Z,23.14
2018-11-06T12:05:14.068Z,23.96
2018-11-06T12:07:43.477Z,24.21
2018-11-06T12:10:13.201Z,21.19
2018-11-06T12:12:42.530Z,22.28
2018-11-06T12:15:14.196Z,20.65
2018-11-06T12:17:44.409Z,17.80
2018-11-06T12:20:14.024Z,17.21
2018-11-06T12:22:43.164Z,17.43
2018-11-06T12:25:12.728Z,17.54
2018-11-06T12:27:41.678Z,16.69
2018-11-06T12:30:14.204Z,17.02
2018-11-06T12:32:43.469Z,17.89
2018-11-06T12:35:13.257Z,19.19
2018-11-06T12:37:42.599Z,19.39
2018-11-06T12:40:12.733Z,19.01
2018-11-06T12:42:43.146Z,18.79
2018-11-06T12:45:13.749Z,18.12
2018-11-06T12:47:43.350Z,18.97
2018-11-06T12:50:12.569Z,19.39
2018-11-06T12:52:41.947Z,19.08
2018-11-06T12:55:13.770Z,19.89
2018-11-06T12:57:43.262Z,19.10
2018-11-06T13:00:19.412Z,18.48
2018-11-06T13:02:49.760Z,19.23
2018-11-06T13:05:18.943Z,18.42
2018-11-06T13:07:48.289Z,18.71
2018-11-06T13:10:17.496Z,19.26
2018-11-06T13:12:46.660Z,19.46
2018-11-06T13:15:17.487Z,20.11
2018-11-06T13:17:44.957Z,20.62
2018-11-06T13:20:15.817Z,20.99
2018-11-06T13:22:45.574Z,21.31
2018-11-06T13:25:14.925Z,19.02
2018-11-06T13:27:44.084Z,19.42
2018-11-06T13:30:15.029Z,19.13
2018-11-06T13:32:45.049Z,19.38
2018-11-06T13:35:14.244Z,18.48
2018-11-06T13:37:43.476Z,18.07
2018-11-06T13:40:13.952Z,18.39
2018-11-06T13:42:43.553Z,18.55
2018-11-06T13:45:20.988Z,18.74
2018-11-06T13:47:49.960Z,18.38
2018-11-06T13:50:19.201Z,18.46
2018-11-06T13:52:48.356Z,18.58
2018-11-06T13:55:17.757Z,18.27
2018-11-06T13:57:47.556Z,18.47
2018-11-06T14:00:19.372Z,18.63
2018-11-06T14:02:48.568Z,18.44
2018-11-06T14:05:18.124Z,18.53
2018-11-06T14:07:47.301Z,18.01
2018-11-06T14:10:16.430Z,18.18
2018-11-06T14:12:46.416Z,18.24
2018-11-06T14:15:15.589Z,17.96
2018-11-06T14:17:44.958Z,17.57
2018-11-06T14:20:15.108Z,17.31
2018-11-06T14:22:44.778Z,16.88
2018-11-06T14:25:14.485Z,17.09
2018-11-06T14:27:43.704Z,17.36
2018-11-06T14:30:18.436Z,17.17
2018-11-06T14:32:48.113Z,17.33
2018-11-06T14:35:18.477Z,17.27
2018-11-06T14:37:48.713Z,17.17
2018-11-06T14:40:18.221Z,17.18
2018-11-06T14:42:47.480Z,16.91
2018-11-06T14:45:17.931Z,16.77
2018-11-06T14:47:47.132Z,16.42
2018-11-06T14:50:16.206Z,16.34
2018-11-06T14:52:45.364Z,16.06
2018-11-06T14:55:15.509Z,15.96
2018-11-06T14:57:45.208Z,15.88
2018-11-06T15:00:18.933Z,15.76
2018-11-06T15:02:49.513Z,15.85
2018-11-06T15:05:19.510Z,15.88
2018-11-06T15:07:48.969Z,15.60
2018-11-06T15:10:18.453Z,15.44
2018-11-06T15:12:48.328Z,15.34
2018-11-06T15:15:17.929Z,15.25
2018-11-06T15:17:47.845Z,15.21
2018-11-06T15:20:18.373Z,15.10
2018-11-06T15:22:47.558Z,15.01
2018-11-06T15:25:17.584Z,14.97
2018-11-06T15:27:46.741Z,14.87
2018-11-06T15:30:17.789Z,14.78
2018-11-06T15:32:47.709Z,14.72
2018-11-06T15:35:18.186Z,14.61
2018-11-06T15:37:47.333Z,14.45
2018-11-06T15:40:18.456Z,14.27
2018-11-06T15:42:48.190Z,14.18
2018-11-06T15:45:18.448Z,13.99
2018-11-06T15:47:48.201Z,13.85
2018-11-06T15:50:18.625Z,13.77
2018-11-06T15:52:48.908Z,13.74
2018-11-06T15:55:18.109Z,13.65
2018-11-06T15:57:47.464Z,13.42
2018-11-06T16:00:19.669Z,13.24
2018-11-06T16:02:50.156Z,13.11
2018-11-06T16:05:19.293Z,13.01
2018-11-06T16:07:49.593Z,12.88
2018-11-06T16:10:20.661Z,12.77
2018-11-06T16:12:49.786Z,12.67
2018-11-06T16:15:19.039Z,12.57
2018-11-06T16:17:48.633Z,12.45
2018-11-06T16:20:19.018Z,12.35
2018-11-06T16:22:48.639Z,12.27
2018-11-06T16:25:18.779Z,12.16
2018-11-06T16:27:48.883Z,12.10
2018-11-06T16:30:19.433Z,12.01
2018-11-06T16:32:48.679Z,11.96
2018-11-06T16:35:20.297Z,11.83
2018-11-06T16:37:49.874Z,11.64
2018-11-06T16:40:19.610Z,11.70
2018-11-06T16:42:49.324Z,11.77
2018-11-06T16:45:20.644Z,11.77
2018-11-06T16:47:51.181Z,11.72
2018-11-06T16:50:20.881Z,11.68
2018-11-06T16:52:50.031Z,11.69
2018-11-06T16:55:19.942Z,11.54
2018-11-06T16:57:49.161Z,11.61
2018-11-06T17:00:20.569Z,11.60
2018-11-06T17:02:49.489Z,11.61
2018-11-06T17:05:18.685Z,11.63
2018-11-06T17:07:48.217Z,11.66
2018-11-06T17:10:18.081Z,11.62
2018-11-06T17:12:47.265Z,11.63
2018-11-06T17:15:19.105Z,11.68
2018-11-06T17:17:49.960Z,11.80
2018-11-06T17:20:19.649Z,11.84
2018-11-06T17:22:49.722Z,11.92
2018-11-06T17:25:20.045Z,11.95
2018-11-06T17:27:50.194Z,11.93
2018-11-06T17:30:19.872Z,11.88
2018-11-06T17:32:49.072Z,11.90
2018-11-06T17:35:19.297Z,11.82
2018-11-06T17:37:48.445Z,11.89
2018-11-06T17:40:18.866Z,11.73
2018-11-06T17:42:48.558Z,11.76
2018-11-06T17:45:19.369Z,11.77
2018-11-06T17:47:48.544Z,11.75
2018-11-06T17:50:18.645Z,11.68
2018-11-06T17:52:47.832Z,11.59
2018-11-06T17:55:18.538Z,11.62
2018-11-06T17:57:47.501Z,11.58
2018-11-06T18:00:19.922Z,11.50
2018-11-06T18:02:49.068Z,11.43
2018-11-06T18:05:19.572Z,11.33
2018-11-06T18:07:48.755Z,11.43
2018-11-06T18:10:19.442Z,11.41
2018-11-06T18:12:48.597Z,11.38
2018-11-06T18:15:18.116Z,11.39
2018-11-06T18:17:47.357Z,11.21
2018-11-06T18:20:16.694Z,11.27
2018-11-06T18:22:47.002Z,11.17
2018-11-06T18:25:16.481Z,11.15
2018-11-06T18:27:45.557Z,11.06
2018-11-06T18:30:17.731Z,11.01
2018-11-06T18:32:46.830Z,11.22
2018-11-06T18:35:17.208Z,11.33
2018-11-06T18:37:46.986Z,11.65
2018-11-06T18:40:18.673Z,11.70
2018-11-06T18:42:48.836Z,11.79
2018-11-06T18:45:18.081Z,11.95
2018-11-06T18:47:47.357Z,12.05
2018-11-06T18:50:17.757Z,12.24
2018-11-06T18:52:48.149Z,12.12
2018-11-06T18:55:17.428Z,11.95
2018-11-06T18:57:46.642Z,12.14
2018-11-06T19:00:18.137Z,12.09
2018-11-06T19:02:48.628Z,12.26
2018-11-06T19:05:18.526Z,12.41
2018-11-06T19:07:47.685Z,12.49
2018-11-06T19:10:17.460Z,12.55
2018-11-06T19:12:46.581Z,12.60
2018-11-06T19:15:16.961Z,12.57
2018-11-06T19:17:47.197Z,12.72
2018-11-06T19:20:17.269Z,12.54
2018-11-06T19:22:46.954Z,12.68
2018-11-06T19:25:16.617Z,12.67
2018-11-06T19:27:45.728Z,12.73
2018-11-06T19:30:17.570Z,12.67
2018-11-06T19:32:46.736Z,12.66
2018-11-06T19:35:15.812Z,12.62
2018-11-06T19:37:45.373Z,12.77
2018-11-06T19:40:15.874Z,12.62
2018-11-06T19:42:46.149Z,12.57
2018-11-06T19:45:15.567Z,12.54
2018-11-06T19:47:44.801Z,12.57
2018-11-06T19:50:17.621Z,12.49
2018-11-06T19:52:46.846Z,12.47
2018-11-06T19:55:17.413Z,12.37
2018-11-06T19:57:46.889Z,12.25
2018-11-06T20:00:23.391Z,12.27
2018-11-06T20:02:53.822Z,12.25
2018-11-06T20:05:23.095Z,12.19
2018-11-06T20:07:52.736Z,12.10
2018-11-06T20:10:23.390Z,12.08
2018-11-06T20:12:53.498Z,12.09
2018-11-06T20:15:23.029Z,12.12
2018-11-06T20:17:52.357Z,11.90
2018-11-06T20:20:25.697Z,11.61
2018-11-06T20:22:55.170Z,11.66
2018-11-06T20:25:24.336Z,11.60
2018-11-06T20:27:53.436Z,11.50
2018-11-06T20:30:24.548Z,11.45
2018-11-06T20:32:53.668Z,11.43
2018-11-06T20:35:22.817Z,11.45
2018-11-06T20:37:51.997Z,11.34
2018-11-06T20:40:24.143Z,11.28
2018-11-06T20:42:53.879Z,11.27
2018-11-06T20:45:23.353Z,11.22
2018-11-06T20:47:52.757Z,11.14
2018-11-06T20:50:23.797Z,11.07
2018-11-06T20:52:53.320Z,11.07
2018-11-06T20:55:22.399Z,10.98
2018-11-06T20:57:51.577Z,10.96
2018-11-06T21:00:23.333Z,10.92
2018-11-06T21:02:54.059Z,10.94
2018-11-06T21:05:23.172Z,10.96
2018-11-06T21:07:52.308Z,11.03
2018-11-06T21:10:23.009Z,11.07
2018-11-06T21:12:52.109Z,11.14
2018-11-06T21:15:21.180Z,11.05
2018-11-06T21:17:50.462Z,11.07
2018-11-06T21:20:19.671Z,11.03
2018-11-06T21:22:48.937Z,11.04
2018-11-06T21:25:18.178Z,11.03
2018-11-06T21:27:47.216Z,10.99
2018-11-06T21:30:18.849Z,11.01
2018-11-06T21:32:49.357Z,11.07
2018-11-06T21:35:18.908Z,11.12
2018-11-06T21:37:48.085Z,11.14
2018-11-06T21:40:18.552Z,11.13
2018-11-06T21:42:48.553Z,11.08
2018-11-06T21:45:18.188Z,11.08
2018-11-06T21:47:48.300Z,11.09
2018-11-06T21:50:17.837Z,11.04
2018-11-06T21:52:46.971Z,11.11
2018-11-06T21:55:17.430Z,11.18
2018-11-06T21:57:46.590Z,10.99
2018-11-06T22:00:17.033Z,10.34
2018-11-06T22:02:46.170Z,10.36
2018-11-06T22:05:16.965Z,10.27
2018-11-06T22:07:46.336Z,10.35
2018-11-06T22:10:16.812Z,10.26
2018-11-06T22:12:46.551Z,10.36
2018-11-06T22:15:16.908Z,10.36
2018-11-06T22:17:46.064Z,10.43
2018-11-06T22:20:16.429Z,10.67
2018-11-06T22:22:46.089Z,10.64
2018-11-06T22:25:15.782Z,10.78
2018-11-06T22:27:44.925Z,10.83
2018-11-06T22:30:15.241Z,10.76
2018-11-06T22:32:45.660Z,10.66
2018-11-06T22:35:16.025Z,10.55
2018-11-06T22:37:45.180Z,10.72
2018-11-06T22:40:15.467Z,10.76
2018-11-06T22:42:44.689Z,10.51
2018-11-06T22:45:15.056Z,10.58
2018-11-06T22:47:44.257Z,10.68
2018-11-06T22:50:16.733Z,10.82
2018-11-06T22:52:46.713Z,10.86
2018-11-06T22:55:15.913Z,10.94
2018-11-06T22:57:45.292Z,10.95
2018-11-06T23:00:23.433Z,10.94
2018-11-06T23:02:52.577Z,10.85
2018-11-06T23:05:21.756Z,10.83
2018-11-06T23:07:56.273Z,10.73
2018-11-06T23:10:25.384Z,10.72
2018-11-06T23:12:54.452Z,10.71
2018-11-06T23:15:23.694Z,10.70
2018-11-06T23:17:52.813Z,10.68
2018-11-06T23:20:21.965Z,10.69
2018-11-06T23:22:51.427Z,10.54
2018-11-06T23:25:20.573Z,10.47
2018-11-06T23:27:49.645Z,10.20
2018-11-06T23:30:18.769Z,10.17
2018-11-06T23:32:48.573Z,10.14
2018-11-06T23:35:17.817Z,10.13
2018-11-06T23:37:47.009Z,10.12
2018-11-06T23:40:16.537Z,10.07
2018-11-06T23:42:45.680Z,10.08
2018-11-06T23:45:14.869Z,10.02
2018-11-06T23:47:44.062Z,9.99
2018-11-06T23:50:13.196Z,9.97
2018-11-06T23:52:43.241Z,9.93
2018-11-06T23:55:12.371Z,9.83
2018-11-06T23:57:41.472Z,9.75
